CheckWX is a tool to help pilots better visualize weather data.  It is not intended as a substitute for an official pre-flight weather briefing.

19:58:53 UTC

KDVL METAR
Devils Lake Regional Airport
Devils Lake, North Dakota, USA
Current

1 hour ago

KDVL 251856Z AUTO 29019G25KT 10SM SCT049 22/12 A2978 RMK AO2 SLP667 T02220117
Observed
Jun-25 @ 18:56 UTC
Wind
  • 290° at 19 KTS
  • Gusting to 25 KTS
Visibility
10 SM
Flight Rules
VFR
Cloud Levels
  • Scattered at 4,900' AGL
Temperature
22°C / 72°F
Dewpoint
12°C / 54°F
Humidity
53%
Altimeter
29.78" Hg
Pressure
1008.42 hPa
Previous

2 hours ago

KDVL 251756Z AUTO 29017KT 10SM SCT042 22/12 A2978 RMK AO2 SLP665 60000 T02170122 10217 20144 51012
Observed
Jun-25 @ 17:56 UTC
Wind
  • 290° at 17 KTS
Visibility
10 SM
Flight Rules
VFR
Cloud Levels
  • Scattered at 4,200' AGL
Temperature
22°C / 72°F
Dewpoint
12°C / 54°F
Humidity
53%
Altimeter
29.78" Hg
Pressure
1008.42 hPa
Previous

3 hours ago

KDVL 251656Z AUTO 29014KT 10SM SCT034 21/13 A2977 RMK AO2 SLP662 T02060128
Observed
Jun-25 @ 16:56 UTC
Wind
  • 290° at 14 KTS
Visibility
10 SM
Flight Rules
VFR
Cloud Levels
  • Scattered at 3,400' AGL
Temperature
21°C / 70°F
Dewpoint
13°C / 55°F
Humidity
60%
Altimeter
29.77" Hg
Pressure
1008.12 hPa